Tiempo atmosférico en la estación meteorológica de Segovia, Segovia (1005 m.)



Fecha
DESCASC
Temp. máxima en grados centígrados (hora)
DESCASC
Temp. mínima en grados centígrados (hora)
DESCASC
Temp. media en grados centígrados
DESCASC
Racha de viento máxima en m/sg (hora)
DESCASC
Velocidad máxima media en intervalos de 10 minutos(hora)
DESCASC
Precipitaciones diarias en mm
DESCASC
Precipitaciones de 00:00 a 06:00 en mm
DESCASC
Precipitaciones de 06:00 a 12:00 en mm
DESCASC
Precipitaciones de 12:00 a 18:00 en mm
DESCASC
Precipitaciones de 18:00 a 24:00 en mm
DESCASC
29-03-2020 15.6 (17:00) 3.2 (08:20) 9.4 10 (22:00) 5 (22:20) 0 0 0 0 0
28-03-2020 14.9 (17:50) 0.1 (04:50) 7.5 6.11 (14:20) 3.06 (00:50) 0 0 0 0 0
27-03-2020 10.2 (16:00) -1.4 (07:00) 4.4 12.5 (14:00) 7.5 (14:00) 0 0 0 0 0
26-03-2020 10 (15:00) -1.1 (-00:0) 4.4 8.89 (14:40) 4.72 (16:30) 0 0 0 0 0
25-03-2020 14.4 (16:00) 2.3 (00:00) 8.3 7.22 (18:40) 4.17 (17:00) 0 0 0 0 0
24-03-2020 14.3 (16:50) 6.5 (00:00) 10.4 12.22 (10:30) 8.33 (12:30) 0 0 0 0 0
23-03-2020 12.7 (16:00) 4.6 (00:00) 8.6 10.56 (13:00) 7.5 (13:00) 0 0 0 0 0
22-03-2020 10.7 (17:50) 4.6 (06:30) 7.6 9.17 (23:10) 5.83 (23:10) 0.6 0 0.2 0.2 0.2
21-03-2020 11.6 (13:20) 6.3 (00:00) 9 12.78 (11:10) 9.17 (11:10) 0 0 0 0 0
20-03-2020 15.2 (14:10) 6.3 (00:00) 10.8 13.89 (02:00) 9.17 (02:10) 0 0 0 0 0
19-03-2020 14.8 (17:10) 7.5 (00:00) 11.2 12.22 (23:30) 8.33 (23:40) 0 0 0 0 0
18-03-2020 16.6 (16:40) 6.4 (00:00) 11.5 6.11 (18:10) 4.17 (00:20) 0 0 0 0 0
17-03-2020 14.2 (17:00) 2.3 (00:00) 8.2 18.61 (11:20) 12.5 (13:10) 4.6 4.4 0.2 0 0
16-03-2020 5.3 (15:30) 0 (00:00) 2.7 16.94 (14:40) 10 (14:50) 10.8 2 3.6 2.2 3
15-03-2020 18.5 (14:50) 5.1 (00:00) 11.8 14.72 (15:50) 10.83 (16:30) 3.8 0 0 0.8 3
14-03-2020 17.8 (16:50) 3.3 (00:00) 10.5 5 (17:10) 3.33 (21:10) 0 0 0 0 0
13-03-2020 15 (17:10) 6.2 (07:00) 10.6 5.83 (20:00) 3.61 (20:00) 0 0 0 0 0
12-03-2020 23.6 (15:00) 12.1 (00:00) 17.9 10.28 (16:00) 7.5 (16:30) 0 0 0 0 0
11-03-2020 23.9 (15:40) 8.7 (00:00) 16.3 6.11 (15:50) 3.61 (13:00) 0 0 0 0 0
10-03-2020 21 (16:50) 5.1 (00:00) 13 6.11 (17:30) 4.44 (17:00) 0 0 0 0 0
09-03-2020 12.3 (17:00) 3.5 (00:00) 7.9 8.61 (01:40) 5 (01:40) 0 0 0 0 0
08-03-2020 13.1 (15:30) 1.5 (00:00) 7.3 9.72 (16:00) 5.83 (18:40) 0 0 0 0 0
07-03-2020 11.4 (17:30) -1.2 (-00:0) 5.1 6.94 (16:00) 3.61 (11:20) 0 0 0 0 0
06-03-2020 8 (16:20) 1.6 (00:00) 4.8 16.94 (12:00) 11.39 (12:30) 0 0 0 0 0
05-03-2020 11.1 (04:10) 4 (00:00) 7.6 18.33 (10:10) 12.78 (10:20) 1.2 0 1.2 0 0
04-03-2020 11.6 (17:00) 7.8 (07:40) 9.7 10 (10:40) 6.67 (10:50) 0.4 0.2 0.2 0 0
03-03-2020 12.9 (17:00) 1.9 (00:00) 7.4 20.28 (11:50) 11.94 (14:50) 0.6 0.2 0 0 0.4
02-03-2020 10.7 (02:10) 2.4 (00:00) 6.5 28.06 (05:40) 20.56 (05:50) 0.6 0.4 0.2 0 0
01-03-2020 13.4 (16:00) 6.2 (00:00) 9.8 16.39 (15:10) 11.39 (15:10) 1.8 0 0.8 0 1
29-02-2020 14.8 (14:00) 6.3 (00:00) 10.6 20 (13:50) 14.17 (14:00) 0 0 0 0 0

Gráficas

Temp. máximas Temp. mínimas Temp. medias Precipitaciones Rachas de viento máximas Velocidades máximas media en intervalos de 10 minutos

Datos horarios

Fecha y hora oficial Temperatura (ºC) Velocidad del viento (km/h) Dirección del viento Racha (km/h) Dirección de racha Precipitación (mm) Presión (hPa) Tendencia (hPa) Humedad (%)
2020-03-29 23:00:00 7.9 13 Nordeste 31 Nordeste 0 901.2 0.4 59
2020-03-29 22:00:00 9.3 18 Nordeste 36 Nordeste 0 901.2 0.6 51
2020-03-29 21:00:00 11.4 14 Norte 24 Nordeste 0 900.9 0.2 41
2020-03-29 20:00:00 12.9 9 Norte 25 Norte 0 900.8 -0.2 41
2020-03-29 19:00:00 13.7 10 Noroeste 23 Noroeste 0 900.6 -1.1 37
2020-03-29 18:00:00 15.2 11 Norte 24 Noroeste 0 900.7 -1.6 38
2020-03-29 17:00:00 15.6 8 Oeste 21 Noroeste 0 901 -1.8 33
2020-03-29 16:00:00 15.1 6 Oeste 22 Nordeste 0 901.7 -1.6 36
2020-03-29 15:00:00 14.7 9 Norte 22 Norte 0 902.3 -1.4 35
2020-03-29 14:00:00 14 11 Norte 23 Nordeste 0 902.8 -1.2 41
2020-03-29 13:00:00 12.8 5 Noroeste 18 Sudoeste 0 903.3 -0.5 43
2020-03-29 12:00:00 11.2 10 Sudoeste 17 Sudoeste 0 903.7 0 48
2020-03-29 11:00:00 9.8 9 Sudoeste 14 Oeste 0 904 0.7 55
2020-03-29 10:00:00 8.5 7 Sudoeste 9 Sudoeste 0 903.8 0.8 56
2020-03-29 09:00:00 5.4 3 Este 6 Este 0 903.7 0.6 65
2020-03-29 08:00:00 3.5 4 Este 6 Este 0 903.3 0.2 70
2020-03-29 07:00:00 3.9 7 Este 10 Este 0 903 -0.4 68
2020-03-29 06:00:00 4 4 Nordeste 6 Este 0 903.1 -0.4 68
2020-03-29 05:00:00 4.7 3 Este 14 Sudeste 0 903.1 -0.7 65
2020-03-29 03:00:00 5.3 0 Calma 6 Nordeste 0 903.5 -0.1 64
2020-03-29 01:00:00 5.5 0 Calma 6 Este 0 903.8 0.3 64
2020-03-29 00:00:00 6.3 5 Este 8 Nordeste 0 903.8 0.8 62
2020-03-28 23:00:00 6.6 6 Este 9 Este 0 903.6 1.4 62
2020-03-28 22:00:00 7.2 0 Calma 12 Oeste 0 903.5 1.8 57
2020-03-28 21:00:00 9.5 5 Norte 16 Oeste 0 903 1.6 50
2020-03-28 20:00:00 11.3 5 Sudoeste 15 Sudoeste 0 902.2 1 46
2020-03-28 19:00:00 13 10 Sudoeste 15 Sudoeste 0 901.7 0.4 39
2020-03-28 18:00:00 14.6 6 Oeste 17 Oeste 0 901.4 -0.2 33
2020-03-28 17:00:00 14.3 4 Sur 15 Noroeste 0 901.2 -0.7 37
2020-03-28 16:00:00 14 9 Noroeste 19 Noroeste 0 901.3 -1 38
2020-03-28 15:00:00 13.4 8 Oeste 22 Oeste 0 901.6 -1 37
2020-03-28 14:00:00 12.3 9 Oeste 18 Oeste 0 901.9 -0.6 40
2020-03-28 13:00:00 11.3 7 Oeste 17 Oeste 0 902.3 -0.1 41
2020-03-28 12:00:00 10 9 Oeste 17 Oeste 0 902.6 1 46
2020-03-28 11:00:00 8.6 8 Sudoeste 14 Sudoeste 0 902.5 1.1 53
2020-03-28 10:00:00 6 9 Oeste 15 Oeste 0 902.4 1.3 64
2020-03-28 09:00:00 6.4 4 Sudeste 10 Este 0 901.6 1 52
2020-03-28 08:00:00 2.1 4 Nordeste 7 Este 0 901.4 0.9 69
2020-03-28 07:00:00 0.4 3 Este 12 Sudeste 0 901.1 0.9 74
2020-03-28 06:00:00 0.3 5 Este 13 Sudeste 0 900.6 0.2 76
2020-03-28 05:00:00 0.1 4 Este 11 Sudoeste 0 900.5 0.2 76
2020-03-28 04:00:00 2.1 5 Sudeste 11 Este 0 900.2 0.4 69
2020-03-28 03:00:00 1.2 5 Este 9 Sudoeste 0 900.4 0.8 72
2020-03-28 02:00:00 1.4 9 Sudoeste 13 Este 0 900.3 0.9 69
2020-03-28 01:00:00 4.2 10 Este 17 Sudeste 0 899.8 0.8 57
2020-03-28 00:00:00 3.9 6 Este 13 Sudeste 0 899.6 1.2 59
2020-03-27 23:00:00 4.2 4 Nordeste 19 Este 0 899.4 1.7 57
2020-03-27 22:00:00 5.4 14 Este 20 Este 0 899 2 50
2020-03-27 21:00:00 6.4 10 Este 17 Este 0 898.4 1.9 47
2020-03-27 20:00:00 7.9 13 Este 21 Este 0 897.7 1.5 38
2020-03-27 19:00:00 8.8 11 Este 24 Este 0 897 0.9 33
2020-03-27 18:00:00 9.2 7 Este 22 Sudeste 0 896.5 0.2 33
2020-03-27 17:00:00 9.8 16 Sudeste 34 Nordeste 0 896.2 -0.1 30
2020-03-27 16:00:00 10 13 Este 39 Este 0 896.1 -0.3 33
2020-03-27 15:00:00 9.1 26 Sudeste 40 Sudeste 0 896.3 -0.2 36
2020-03-27 14:00:00 9.2 27 Este 45 Este 0 896.3 0 35
2020-03-27 13:00:00 8.4 14 Este 34 Este 0 896.4 0.5 39
2020-03-27 12:00:00 8.2 8 Este 22 Este 0 896.5 0.8 35
2020-03-27 11:00:00 7.3 8 Este 19 Este 0 896.3 1 47
2020-03-27 10:00:00 5.6 6 Nordeste 13 Este 0 895.9 0.9 52
2020-03-27 09:00:00 2.6 3 Nordeste 9 Sudeste 0 895.7 1 67
2020-03-27 08:00:00 -0.2 5 Sudeste 9 Sudeste 0 895.3 0.7 78
2020-03-27 07:00:00 -1.4 8 Sur 12 Sur 0 895 0.3 80
2020-03-27 06:00:00 0.2 9 Sudoeste 13 Sudoeste 0 894.7 -0.2 72
2020-03-27 05:00:00 1.8 2 Sudeste 21 Este 0 894.6 -0.6 67
2020-03-27 04:00:00 1.9 14 Nordeste 39 Nordeste 0 894.7 -0.8 61
2020-03-27 03:00:00 2.5 16 Nordeste 32 Nordeste 0 894.9 -0.3 59
2020-03-27 02:00:00 3.2 8 Nordeste 26 Nordeste 0 895.2 0 69
2020-03-27 01:00:00 4.3 15 Nordeste 30 Nordeste 0 895.5 0.3 66
2020-03-27 00:00:00 4.2 12 Este 21 Este 0 895.2 -0.1 63
2020-03-26 23:00:00 4 12 Nordeste 21 Nordeste 0 895.2 0.2 65
2020-03-26 22:00:00 4.1 9 Nordeste 15 Nordeste 0 895.2 -0.2 62
2020-03-26 21:00:00 5.1 9 Nordeste 20 Este 0 895.3 0.3 58
2020-03-26 20:00:00 6.4 12 Este 25 Nordeste 0 895 -0.1 55
2020-03-26 19:00:00 7.8 12 Nordeste 27 Nordeste 0 895.4 0 49
2020-03-26 18:00:00 9.1 8 Norte 27 Norte 0 895 -0.5 43
2020-03-26 17:00:00 9.2 12 Norte 30 Norte 0 895.1 -0.9 43
2020-03-26 16:00:00 9.4 14 Nordeste 30 Nordeste 0 895.4 -1 45
2020-03-26 15:00:00 9.8 13 Norte 32 Norte 0 895.5 -1.2 43
2020-03-26 14:00:00 9.3 14 Noroeste 29 Norte 0 896 -1 39
2020-03-26 13:00:00 8.3 13 Noroeste 28 Norte 0 896.4 -0.6 45
2020-03-26 12:00:00 7.8 11 Nordeste 23 Nordeste 0 896.7 -0.5 51
2020-03-26 11:00:00 6.7 7 Noroeste 17 Noroeste 0 897 -0.3 50
2020-03-26 10:00:00 5.5 5 Oeste 13 Este 0 897 -0.2 50
2020-03-26 09:00:00 3.4 6 Este 10 Este 0 897.2 0.2 47
2020-03-26 08:00:00 0.6 3 Este 6 Oeste 0 897.3 0.3 58
2020-03-26 07:00:00 -0.8 4 Oeste 9 Este 0 897.2 -0.1 62
2020-03-26 06:00:00 0.7 6 Nordeste 13 Nordeste 0 897 -0.4 56
2020-03-26 05:00:00 1.1 8 Nordeste 12 Este 0 897 -0.9 51
2020-03-26 04:00:00 2 7 Noroeste 12 Nordeste 0 897.3 -0.6 50
2020-03-26 03:00:00 4.2 7 Este 12 Este 0 897.4 -0.5 40
2020-03-26 02:00:00 4 4 Nordeste 8 Nordeste 0 897.9 -0.4 71
2020-03-26 01:00:00 5 3 Este 7 Este 0 897.9 -0.1 73
2020-03-26 00:00:00 5.7 4 Este 5 Este 0 897.9 -0.2 62
2020-03-25 23:00:00 6.3 3 Este 18 Sudoeste 0 898.3 0.4 58
2020-03-25 22:00:00 7.9 3 Norte 9 Nordeste 0 898 0.1 50
2020-03-25 21:00:00 9.6 6 Nordeste 12 Nordeste 0 898.1 0.1 42
2020-03-25 20:00:00 11.5 7 Norte 17 Nordeste 0 897.9 -0.3 35
2020-03-25 19:00:00 13.2 7 Noroeste 26 Noroeste 0 897.9 -0.8 37
2020-03-25 18:00:00 13.4 8 Noroeste 22 Noroeste 0 898 -1.2 39
2020-03-25 17:00:00 14.3 15 Noroeste 25 Noroeste 0 898.2 -1.6 34
2020-03-25 16:00:00 14.4 11 Oeste 25 Noroeste 0 898.7 -1.7 40
2020-03-25 15:00:00 13.7 13 Noroeste 22 Noroeste 0 899.2 -1.4 37
2020-03-25 14:00:00 13 9 Norte 23 Noroeste 0 899.8 -0.9 48
2020-03-25 13:00:00 12.7 8 Noroeste 21 Norte 0 900.4 -0.6 52
2020-03-25 12:00:00 11.1 7 Noroeste 14 Norte 0 900.6 -0.3 57
2020-03-25 11:00:00 9.9 5 Sudoeste 12 Sudoeste 0 900.7 0 68
2020-03-25 10:00:00 8.6 8 Sudoeste 15 Oeste 0 901 0.6 76
2020-03-25 09:00:00 7.7 3 Sudeste 6 Sudeste 0 900.9 0.4 71
2020-03-25 08:00:00 4 3 Este 8 Este 0 900.7 0.1 84
2020-03-25 07:00:00 2.5 4 Este 10 Sudeste 0 900.4 -0.1 89
2020-03-25 06:00:00 3 4 Sur 6 Sur 0 900.5 -0.3 84
2020-03-25 05:00:00 3.5 3 Oeste 8 Nordeste 0 900.6 0 84
2020-03-25 04:00:00 4.5 6 Nordeste 10 Este 0 900.5 -0.3 80
2020-03-25 03:00:00 4.7 4 Noroeste 8 Nordeste 0 900.8 -0.1 79
2020-03-25 02:00:00 5.4 3 Sudeste 9 Este 0 900.6 -0.3 77
2020-03-25 01:00:00 5.8 5 Sudeste 8 Sudeste 0 900.8 0.2 75
2020-03-25 00:00:00 6.5 4 Oeste 14 Sudeste 0 900.9 0.3 74
2020-03-24 23:00:00 7.5 12 Sudeste 18 Sudeste 0 900.9 0.7 68
2020-03-24 22:00:00 8.8 11 Sudeste 19 Sudeste 0 900.6 0.7 62
2020-03-24 21:00:00 9 15 Sudeste 17 Sudeste 0 900.6 1.2 63
2020-03-24 20:00:00 10.8 13 Este 26 Este 0 900.2 0.9 56
2020-03-24 19:00:00 12.1 14 Este 23 Este 0 899.9 0.4 50
2020-03-24 18:00:00 12.6 19 Este 27 Este 0 899.4 -0.7 48
2020-03-24 17:00:00 14.2 9 Nordeste 21 Nordeste 0 899.3 -1.3 44
2020-03-24 16:00:00 13.5 14 Este 31 Sudeste 0 899.5 -1.3 45
2020-03-24 15:00:00 13.2 20 Este 37 Este 0 900.1 -0.9 48
2020-03-24 14:00:00 12.7 23 Este 41 Este 0 900.6 -0.4 49
2020-03-24 13:00:00 12.3 24 Este 43 Este 0 900.8 -0.2 51
2020-03-24 12:00:00 12.2 22 Este 37 Este 0 901 -0.1 51
2020-03-24 11:00:00 11.4 25 Este 44 Este 0 901 -0.1 55
2020-03-24 10:00:00 9.7 21 Este 37 Sudeste 0 901 0.3 60
2020-03-24 09:00:00 8.8 14 Este 27 Este 0 901.1 0.6 62
2020-03-24 08:00:00 7.9 16 Este 40 Este 0 901.1 0.4 67
2020-03-24 07:00:00 7.9 20 Este 32 Este 0 900.7 0 68
2020-03-24 06:00:00 7.7 16 Este 26 Este 0 900.5 -0.2 70
2020-03-24 05:00:00 7.6 9 Este 22 Nordeste 0 900.7 -0.2 71
2020-03-24 04:00:00 7.9 13 Nordeste 27 Nordeste 0 900.7 -0.4 72
2020-03-24 03:00:00 8.3 14 Nordeste 25 Nordeste 0 900.7 -0.2 72
2020-03-24 02:00:00 8.1 12 Este 19 Este 0 900.9 -0.1 72
2020-03-24 01:00:00 8.2 13 Este 33 Este 0 901.1 0.4 73
2020-03-24 00:00:00 8.8 18 Este 31 Este 0 900.9 0.5 72
2020-03-23 23:00:00 9.4 14 Este 26 Este 0 901 1.1 65
2020-03-23 22:00:00 8.4 3 Sudeste 8 Noroeste 0 900.7 0.9 67
2020-03-23 21:00:00 8.9 3 Nordeste 25 Este 0 900.4 1.1 65
2020-03-23 20:00:00 9.3 20 Este 31 Este 0 899.9 0.9 66
2020-03-23 19:00:00 10.1 18 Este 31 Este 0 899.8 0.6 65
2020-03-23 18:00:00 10.9 18 Este 36 Nordeste 0 899.3 -0.2 58
2020-03-23 17:00:00 11.5 17 Nordeste 29 Este 0 899 -1.1 58
2020-03-23 16:00:00 12.6 6 Este 33 Este 0 899.2 -1.2 49
2020-03-23 15:00:00 10.7 22 Este 37 Este 0 899.5 -1 59
2020-03-23 14:00:00 10.1 19 Este 34 Este 0 900.1 -0.3 64
2020-03-23 13:00:00 9.1 27 Este 38 Este 0 900.4 0.1 70
2020-03-23 12:00:00 9.7 19 Este 32 Este 0 900.5 0.7 66
2020-03-23 11:00:00 8.9 4 Noroeste 24 Este 0 900.4 0.7 70
2020-03-23 10:00:00 7.1 3 Sudoeste 11 Norte 0 900.3 1.2 89
2020-03-23 09:00:00 5.9 5 Oeste 9 Sur 0 899.8 0.9 91
2020-03-23 08:00:00 5.3 4 Sur 13 Sudeste 0 899.7 1.1 94
2020-03-23 07:00:00 4.7 4 Sur 12 Sudoeste 0 899.1 0.7 94
2020-03-23 06:00:00 4.9 6 Sudoeste 11 Sur 0 898.9 0.5 95
2020-03-23 05:00:00 5.1 4 Nordeste 9 Noroeste 0 898.6 0 95
2020-03-23 04:00:00 5.2 7 Sudoeste 12 Sudoeste 0 898.4 -0.3 92
2020-03-23 03:00:00 6.2 4 Oeste 13 Oeste 0 898.4 0 84
2020-03-23 02:00:00 7.6 6 Noroeste 11 Norte 0 898.6 0.1 74
2020-03-23 01:00:00 8.2 8 Nordeste 24 Este 0 898.7 0.4 70
2020-03-23 00:00:00 8.5 16 Este 33 Este 0 898.4 0.3 66
2020-03-22 23:00:00 8.7 15 Este 25 Este 0 898.5 1.1 65
2020-03-22 22:00:00 8.2 4 Sur 13 Este 0.2 898.3 1.4 85
2020-03-22 21:00:00 8.5 5 Este 10 Norte 0 898.1 1.7 83
2020-03-22 20:00:00 8.6 4 Noroeste 11 Noroeste 0 897.4 1.2 83
2020-03-22 19:00:00 9.3 6 Oeste 16 Oeste 0 896.9 0.6 78
2020-03-22 18:00:00 10.5 4 Oeste 10 Sudoeste 0 896.4 -0.1 68
2020-03-22 17:00:00 10.5 4 Noroeste 16 Sudeste 0 896.2 -0.7 67
2020-03-22 16:00:00 9.7 9 Este 17 Este 0 896.3 -1.1 69
2020-03-22 15:00:00 9.4 8 Este 31 Este 0 896.5 -1.1 71
2020-03-22 14:00:00 9.4 7 Este 15 Este 0 896.9 -0.5 69
2020-03-22 13:00:00 8 6 Oeste 10 Oeste 0.2 897.4 0.3 87
2020-03-22 12:00:00 7.6 5 Noroeste 11 Oeste 0.2 897.6 0.8 88
2020-03-22 11:00:00 7.1 4 Noroeste 8 Noroeste 0 897.4 1 87
2020-03-22 10:00:00 6 6 Noroeste 8 Noroeste 0 897.1 1 92
2020-03-22 09:00:00 5.6 3 Noroeste 6 Nordeste 0 896.8 0.9 95
2020-03-22 08:00:00 4.9 4 Sudoeste 9 Oeste 0 896.4 0.9 98
2020-03-22 07:00:00 4.8 5 Sudoeste 12 Sudoeste 0 896.1 0.4 98
2020-03-22 06:00:00 5 3 Sur 7 Sur 0 895.9 -0.2 91
2020-03-22 05:00:00 5.5 4 Nordeste 8 Nordeste 0 895.5 -0.8 90
2020-03-22 04:00:00 5.8 3 Nordeste 8 Nordeste 0 895.7 -0.8 92
2020-03-22 03:00:00 5.8 2 Norte 6 Norte 0 896.1 -0.5 93
2020-03-22 02:00:00 5.7 2 Noroeste 5 Oeste 0 896.3 -0.2 88
2020-03-22 01:00:00 5.8 0 Calma 10 Sudoeste 0 896.5 0.2 91
2020-03-22 00:00:00 6.3 7 Sudoeste 12 Sudoeste 0 896.6 0.5 84
2020-03-21 23:00:00 6.5 2 Este 16 Sudeste 0 896.5 1.1 74
2020-03-21 22:00:00 6.7 4 Sur 11 Sudoeste 0 896.3 1 71
2020-03-21 21:00:00 6.6 9 Sudoeste 12 Sudeste 0 896.1 1 81
2020-03-21 20:00:00 8.2 9 Este 19 Este 0 895.4 0.3 64
2020-03-21 19:00:00 8 4 Norte 19 Sudeste 0 895.3 0.2 70
2020-03-21 18:00:00 8.1 12 Sudeste 22 Sudeste 0 895.1 -0.1 66
2020-03-21 17:00:00 8.3 8 Sudoeste 30 Este 0 895.1 -0.5 78
2020-03-21 16:00:00 9.5 19 Este 34 Este 0 895.1 -0.9 71
2020-03-21 15:00:00 10.9 9 Este 20 Este 0 895.2 -1.1 63
2020-03-21 14:00:00 11.5 11 Este 21 Sur 0 895.6 -0.6 59
2020-03-21 13:00:00 10.7 10 Sudeste 28 Sudeste 0 896 0.1 63
2020-03-21 12:00:00 11 20 Sudeste 46 Sudeste 0 896.3 0.7 61
2020-03-21 11:00:00 9.9 28 Sudeste 39 Sudeste 0 896.2 0.6 68
2020-03-21 10:00:00 10.2 18 Este 37 Este 0 895.9 0.4 63
2020-03-21 09:00:00 9.3 17 Este 28 Sudeste 0 895.6 -0.1 65
2020-03-21 08:00:00 7.6 13 Sudeste 39 Sudeste 0 895.6 -0.4 73
2020-03-21 07:00:00 8.2 20 Sudeste 36 Sudeste 0 895.5 -0.9 70
2020-03-21 06:00:00 8.3 22 Sudeste 39 Sudeste 0 895.7 -1.5 68
2020-03-21 05:00:00 8 27 Sudeste 41 Sudeste 0 896 -1.9 70
2020-03-21 04:00:00 8.2 9 Este 26 Sur 0 896.4 -1.5 70
2020-03-21 03:00:00 8.5 14 Sudeste 37 Sudeste 0 897.2 -1 70
2020-03-21 02:00:00 8.5 22 Sudeste 39 Sudeste 0 897.9 -0.5 72
2020-03-21 01:00:00 8.9 23 Sudeste 34 Sudeste 0 897.9 -0.9 66
2020-03-21 00:00:00 8.9 17 Sudeste 28 Este 0 898.2 -1 67
2020-03-20 23:00:00 8.9 6 Sudeste 28 Este 0 898.4 -0.7 68
2020-03-20 22:00:00 8.9 12 Este 33 Este 0 898.8 -0.1 70
2020-03-20 21:00:00 9 20 Sudeste 34 Sudeste 0 899.2 0.7 71
2020-03-20 20:00:00 9.3 24 Sudeste 35 Sudeste 0 899.1 0.4 71
2020-03-20 19:00:00 10.5 19 Sudeste 35 Sudeste 0 898.9 0 66
2020-03-20 18:00:00 11.2 23 Sudeste 34 Sudeste 0 898.5 -0.7 64
2020-03-20 17:00:00 12.6 19 Este 27 Sudeste 0 898.7 -0.5 61
2020-03-20 16:00:00 13.8 22 Sudeste 30 Sudeste 0 898.9 -0.8 57
2020-03-20 15:00:00 14.9 7 Noroeste 18 Oeste 0 899.2 -1 52
2020-03-20 14:00:00 15 5 Norte 19 Este 0 899.2 -1 54
2020-03-20 13:00:00 11.8 13 Sudeste 39 Sudeste 0 899.7 -0.5 61
2020-03-20 12:00:00 10.2 29 Sudeste 39 Sudeste 0 900.2 0.4 67
2020-03-20 11:00:00 11.2 22 Sudeste 33 Sudeste 0 900.2 0.4 64
2020-03-20 10:00:00 9.4 4 Oeste 13 Sudoeste 0 900.2 0.7 76
2020-03-20 09:00:00 7.4 9 Sudoeste 18 Este 0 899.8 0.2 87
2020-03-20 08:00:00 6.5 2 Oeste 12 Sudoeste 0 899.8 0.3 88
2020-03-20 07:00:00 7.1 3 Nordeste 5 Sudoeste 0 899.5 -0.2 83
2020-03-20 06:00:00 6.9 4 Sudeste 23 Sudeste 0 899.6 -0.5 84
2020-03-20 05:00:00 8.7 16 Sudeste 33 Sudeste 0 899.5 -1 74
2020-03-20 04:00:00 9 24 Sudeste 41 Sudeste 0 899.7 -1 75
2020-03-20 03:00:00 9.4 28 Sudeste 48 Sudeste 0 900.1 -0.9 71
2020-03-20 02:00:00 9.4 31 Sudeste 50 Sudeste 0 900.5 -0.8 73
2020-03-20 01:00:00 10 27 Sudeste 41 Sudeste 0 900.7 -0.9 67
2020-03-20 00:00:00 10 22 Sudeste 44 Sudeste 0 901 -0.8 69
2020-03-19 23:00:00 10.4 17 Sudeste 31 Sur 0 901.3 -0.5 67
2020-03-19 22:00:00 10.7 19 Sudeste 31 Sudeste 0 901.6 -0.1 64
2020-03-19 21:00:00 10.4 13 Sudeste 19 Sur 0 901.8 0.2 62
2020-03-19 20:00:00 11.5 10 Sudeste 15 Sudeste 0 901.8 -0.1 60
2020-03-19 19:00:00 13.3 4 Oeste 10 Noroeste 0 901.7 -0.7 66
2020-03-19 18:00:00 14.4 6 Noroeste 13 Oeste 0 901.6 -1.4 61
2020-03-19 17:00:00 14.6 7 Oeste 16 Noroeste 0 901.9 -1.9 63
2020-03-19 16:00:00 14.3 6 Noroeste 13 Norte 0 902.4 -2.1 63
2020-03-19 15:00:00 13.8 8 Noroeste 18 Oeste 0 903 -1.9 63
2020-03-19 14:00:00 13.4 6 Oeste 16 Oeste 0 903.8 -1.4 69
2020-03-19 13:00:00 13.1 8 Noroeste 14 Noroeste 0 904.5 -0.8 69
2020-03-19 12:00:00 12.5 9 Noroeste 18 Oeste 0 904.9 -0.2 71
2020-03-19 11:00:00 12.2 8 Nordeste 14 Norte 0 905.2 0.1 72
2020-03-19 10:00:00 10.7 6 Nordeste 14 Nordeste 0 905.3 0.2 77
2020-03-19 09:00:00 8.7 8 Nordeste 12 Nordeste 0 905.1 0.2 83
2020-03-19 08:00:00 7.5 5 Este 9 Sudeste 0 905.1 0.2 86
2020-03-19 07:00:00 7.8 5 Este 8 Norte 0 905.1 -0.1 84
2020-03-19 06:00:00 7.6 5 Oeste 9 Noroeste 0 904.9 -1.1 87
2020-03-19 05:00:00 8.6 7 Oeste 10 Oeste 0 904.9 -1.7 82
2020-03-19 04:00:00 9.5 4 Este 7 Sudeste 0 905.2 -1.8 77
2020-03-19 03:00:00 9.9 5 Sur 10 Sur 0 906 -1.3 76
2020-03-19 02:00:00 10.7 4 Este 16 Este 0 906.6 -1.2 71
2020-03-19 01:00:00 11.7 15 Este 23 Sudeste 0 907 -0.8 66
2020-03-19 00:00:00 10.6 8 Este 14 Sudeste 0 907.3 -0.5 68
2020-03-18 23:00:00 10.4 3 Este 6 Este 0 907.8 0 69
2020-03-18 22:00:00 11.1 3 Nordeste 10 Este 0 907.8 0.2 66
2020-03-18 21:00:00 12 5 Este 12 Sudeste 0 907.8 0.3 65
2020-03-18 20:00:00 13.5 6 Sudeste 20 Este 0 907.8 0.3 60
2020-03-18 19:00:00 14.5 10 Sudeste 22 Este 0 907.6 -0.3 57
2020-03-18 18:00:00 15.7 12 Este 21 Este 0 907.5 -0.8 51
2020-03-18 17:00:00 16.5 6 Norte 13 Noroeste 0 907.5 -1.3 58
2020-03-18 16:00:00 16 7 Noroeste 14 Noroeste 0 907.9 -1.5 62
2020-03-18 15:00:00 16.1 8 Oeste 14 Oeste 0 908.3 -1.4 65
2020-03-18 14:00:00 15.4 4 Oeste 13 Oeste 0 908.8 -1.1 67
2020-03-18 13:00:00 13.7 7 Oeste 14 Oeste 0 909.4 -0.4 68
2020-03-18 12:00:00 12.4 8 Oeste 12 Oeste 0 909.7 0 70
2020-03-18 11:00:00 10.9 6 Noroeste 10 Oeste 0 909.9 0.1 72
2020-03-18 10:00:00 9.8 2 Este 14 Este 0 909.8 -0.1 76
2020-03-18 09:00:00 7.9 5 Este 17 Sudeste 0 909.7 -0.2 84
2020-03-18 08:00:00 6.6 5 Nordeste 9 Este 0 909.8 0.3 85
2020-03-18 07:00:00 6.5 5 Este 7 Este 0 909.9 0.4 86
2020-03-18 06:00:00 6.8 2 Este 8 Sudeste 0 909.9 0.1 86
2020-03-18 05:00:00 7.1 4 Sudoeste 10 Nordeste 0 909.5 -0.7 85
2020-03-18 04:00:00 8.4 6 Nordeste 15 Nordeste 0 909.5 -1 79
2020-03-18 03:00:00 8.4 11 Nordeste 18 Nordeste 0 909.8 -1.2 80
2020-03-18 02:00:00 9.5 4 Noroeste 10 Noroeste 0 910.2 -1 75
2020-03-18 01:00:00 9.9 7 Este 22 Este 0 910.5 -0.4 75
2020-03-18 00:00:00 10.2 14 Este 26 Este 0 911 0.8 76
2020-03-17 23:00:00 10.6 12 Este 21 Este 0 911.2 2 75
2020-03-17 22:00:00 10 9 Nordeste 15 Nordeste 0 910.9 2.2 76
2020-03-17 21:00:00 9.9 4 Oeste 15 Nordeste 0 910.2 2.1 73
2020-03-17 20:00:00 11.2 6 Norte 28 Este 0 909.2 0.9 66
2020-03-17 19:00:00 11.9 14 Este 42 Sudeste 0 908.7 0.8 65
2020-03-17 18:00:00 12.5 28 Este 42 Este 0 908.1 0.4 65
2020-03-17 17:00:00 14.1 18 Este 35 Este 0 908.3 0.6 57
2020-03-17 16:00:00 13.1 19 Este 43 Este 0 907.9 0.7 64
2020-03-17 15:00:00 13.2 24 Este 49 Este 0 907.7 0.5 62
2020-03-17 14:00:00 12.6 30 Este 64 Este 0 907.7 0.7 64
2020-03-17 13:00:00 11.8 40 Este 60 Este 0 907.2 0.7 62
2020-03-17 12:00:00 10.7 31 Este 67 Este 0 907.2 1.3 67
2020-03-17 11:00:00 9.4 26 Este 49 Este 0 907 1 71
2020-03-17 10:00:00 8.8 32 Este 51 Nordeste 0 906.5 1.6 72
2020-03-17 09:00:00 7.8 22 Este 32 Nordeste 0 905.9 1.1 80
2020-03-17 08:00:00 6.7 4 Norte 33 Sudeste 0.2 906 2 85
2020-03-17 07:00:00 5.3 9 Norte 16 Nordeste 0 904.9 1.2 90
2020-03-17 06:00:00 3.8 6 Nordeste 17 Nordeste 0.4 904.8 0.8 95
2020-03-17 05:00:00 3.8 11 Nordeste 21 Este 0.6 904 0.3 92
2020-03-17 04:00:00 4 14 Este 27 Sudeste 1 903.7 0.8 88
2020-03-17 03:00:00 3.6 13 Nordeste 20 Nordeste 0.4 904 1 88
2020-03-17 02:00:00 3.4 3 Sudoeste 13 Nordeste 0.8 903.7 1.4 88
2020-03-17 01:00:00 2.5 4 Sudoeste 8 Sudoeste 1.2 902.9 1.4 97
2020-03-17 00:00:00 2.3 9 Sudoeste 17 Oeste 1.2 903 2.4 97
2020-03-16 23:00:00 2.4 11 Sudoeste 22 Sudoeste 0.8 902.3 2.5 96
2020-03-16 22:00:00 2.7 14 Sudoeste 19 Sudoeste 0.2 901.5 2.3 95
2020-03-16 21:00:00 3.2 6 Nordeste 22 Nordeste 0.2 900.6 2 93
2020-03-16 20:00:00 2.7 17 Nordeste 32 Nordeste 0.2 899.8 1.7 93
2020-03-16 19:00:00 3.1 12 Nordeste 32 Nordeste 0.4 899.2 1.6 92
2020-03-16 18:00:00 3.6 17 Nordeste 40 Nordeste 0 898.6 1.7 90
2020-03-16 17:00:00 3.3 20 Nordeste 47 Nordeste 0.2 898.1 1.1 89
2020-03-16 16:00:00 4.5 23 Nordeste 52 Nordeste 0 897.6 0.9 84
2020-03-16 15:00:00 4.5 32 Nordeste 61 Nordeste 0.2 896.9 0 87
2020-03-16 14:00:00 3.2 32 Nordeste 57 Nordeste 0.2 897 0.3 91
2020-03-16 13:00:00 2.2 21 Nordeste 39 Nordeste 1.6 896.7 0.5 95
2020-03-16 12:00:00 2.6 18 Nordeste 32 Norte 1.6 896.9 1.4 95
2020-03-16 11:00:00 1.1 8 Nordeste 17 Norte 1 896.7 1.7 97
2020-03-16 10:00:00 0.8 5 Nordeste 10 Nordeste 0.6 896.2 1.3 97
2020-03-16 09:00:00 0.4 0 Calma 8 Sudoeste 0.4 895.5 0.7 99
2020-03-16 08:00:00 0.2 5 Sudoeste 8 Sur 0 895 0 99
2020-03-16 07:00:00 0.1 5 Sudoeste 10 Oeste 0 894.9 -0.4 99
2020-03-16 06:00:00 0.2 8 Oeste 16 Oeste 0 894.8 -1.4 98
2020-03-16 05:00:00 0.6 13 Oeste 19 Oeste 0.4 895 -1.4 98
2020-03-16 04:00:00 0.7 9 Oeste 24 Oeste 0.2 895.3 -1.5 98
2020-03-16 03:00:00 0.9 14 Oeste 21 Oeste 0.8 896.2 -0.9 96
2020-03-16 02:00:00 2 13 Oeste 26 Oeste 0 896.4 -0.2 92
2020-03-16 01:00:00 3 18 Oeste 33 Oeste 0.6 896.8 0.3 88
2020-03-16 00:00:00 5.1 24 Oeste 44 Oeste 0.2 897.1 1 85
2020-03-15 23:00:00 8.4 10 Sudoeste 22 Sudoeste 0 896.6 0.7 79
2020-03-15 22:00:00 8.6 12 Sudoeste 22 Oeste 0.4 896.5 0.6 77
2020-03-15 21:00:00 9.1 14 Oeste 21 Oeste 0 896.1 0.6 83
2020-03-15 20:00:00 9.3 8 Oeste 50 Sudoeste 1.6 895.9 0.6 85
2020-03-15 19:00:00 12.1 12 Sudoeste 21 Oeste 0.8 895.9 -0.1 77
2020-03-15 18:00:00 12.3 15 Oeste 53 Sudoeste 0.8 895.5 -1 71
2020-03-15 17:00:00 17.5 30 Sudoeste 53 Sudoeste 0 895.3 -2.6 39
2020-03-15 16:00:00 17.9 36 Sudoeste 53 Sudoeste 0 896 -2.9 41
2020-03-15 15:00:00 18.3 27 Sudoeste 39 Sur 0 896.5 -3.1 41
2020-03-15 14:00:00 17.9 26 Sur 42 Sur 0 897.9 -2.4 42
2020-03-15 13:00:00 17.9 25 Sudoeste 39 Sudoeste 0 898.9 -1.6 45
2020-03-15 12:00:00 17.2 26 Sudoeste 40 Sudoeste 0 899.6 -0.7 46
2020-03-15 11:00:00 16.4 24 Sudoeste 37 Sudoeste 0 900.3 -0.2 51
2020-03-15 10:00:00 15.9 16 Sudoeste 30 Sudoeste 0 900.5 -0.1 55
2020-03-15 09:00:00 12.5 9 Sudeste 14 Sudeste 0 900.3 -0.7 64
2020-03-15 08:00:00 8.6 6 Sudoeste 12 Sudeste 0 900.5 -0.7 71
2020-03-15 07:00:00 7.2 6 Este 9 Este 0 900.6 -1.1 70
2020-03-15 06:00:00 6.6 6 Este 9 Nordeste 0 901 -1.4 70
2020-03-15 05:00:00 6.7 6 Nordeste 8 Nordeste 0 901.2 -1.7 68
2020-03-15 04:00:00 6.9 6 Este 8 Este 0 901.7 -1.7 68
2020-03-15 03:00:00 7.6 5 Este 8 Este 0 902.4 -1.4 66
2020-03-15 02:00:00 7.4 5 Este 7 Nordeste 0 902.9 -1.1 68
2020-03-15 01:00:00 8.1 4 Nordeste 7 Este 0 903.4 -0.7 62
2020-03-15 00:00:00 8 4 Este 10 Sudeste 0 903.8 -0.4 56
2020-03-14 23:00:00 8.8 5 Sudeste 13 Sudeste 0 904 0 56
2020-03-14 22:00:00 10.3 5 Este 18 Este 0 904.1 0.4 54
2020-03-14 21:00:00 11.9 11 Este 17 Este 0 904.2 0.5 50
2020-03-14 20:00:00 13.9 8 Nordeste 15 Nordeste 0 904 0.3 32
2020-03-14 19:00:00 16.2 5 Noroeste 15 Noroeste 0 903.7 -0.4 29
2020-03-14 18:00:00 17.3 8 Noroeste 18 Norte 0 903.7 -0.9 23
2020-03-14 17:00:00 17.8 6 Noroeste 13 Noroeste 0 903.7 -1.6 28
2020-03-14 16:00:00 16.9 6 Norte 14 Norte 0 904.1 -1.8 33
2020-03-14 15:00:00 16.2 6 Noroeste 16 Oeste 0 904.6 -1.6 45
2020-03-14 14:00:00 15.2 6 Oeste 17 Oeste 0 905.3 -1.2 48
2020-03-14 13:00:00 13.6 10 Oeste 15 Oeste 0 905.9 -0.5 49
2020-03-14 12:00:00 11.9 6 Oeste 12 Oeste 0 906.2 -0.1 60
2020-03-14 11:00:00 10.3 6 Sudoeste 9 Sudoeste 0 906.5 0.8 68
2020-03-14 10:00:00 8.5 2 Oeste 5 Sudoeste 0 906.4 0.9 82
2020-03-14 09:00:00 4.5 3 Sudeste 6 Oeste 0 906.3 0.9 100
2020-03-14 08:00:00 3.5 5 Oeste 7 Oeste 0 905.7 0.8 95
2020-03-14 07:00:00 4.3 3 Sudeste 5 Sudeste 0 905.5 0.4 94
2020-03-14 06:00:00 4.5 3 Sudeste 8 Sur 0 905.4 0 96
2020-03-14 05:00:00 5 4 Oeste 9 Sudeste 0 904.9 -0.6 92
2020-03-14 04:00:00 5.2 9 Sudeste 12 Sudeste 0 905.1 -0.9 93
2020-03-14 03:00:00 4.4 6 Sur 13 Noroeste 0 905.4 -0.4 93
2020-03-14 02:00:00 5.8 6 Oeste 13 Oeste 0 905.5 0 91
2020-03-14 01:00:00 6.6 4 Sudoeste 12 Noroeste 0 906 1.2 91
2020-03-14 00:00:00 6.9 8 Oeste 17 Sudeste 0 905.8 1.5 87
2020-03-13 23:00:00 7.1 6 Sur 13 Sudeste 0 905.5 1.6 86
2020-03-13 22:00:00 9.2 5 Este 16 Nordeste 0 904.8 1.5 80
2020-03-13 21:00:00 10 12 Nordeste 20 Nordeste 0 904.3 1.3 77
2020-03-13 20:00:00 11.5 13 Nordeste 21 Nordeste 0 903.9 0.8 73
2020-03-13 19:00:00 13.7 6 Sudoeste 11 Sudoeste 0 903.3 0.2 73
2020-03-13 18:00:00 14.8 6 Oeste 15 Oeste 0 903 -0.4 68
2020-03-13 17:00:00 14.6 6 Oeste 16 Sudoeste 0 903.1 -1 69
2020-03-13 16:00:00 13.2 10 Oeste 17 Oeste 0 903.1 -1.5 74
2020-03-13 15:00:00 13 8 Sudoeste 14 Sudoeste 0 903.4 -1.3 77
2020-03-13 14:00:00 10.3 5 Nordeste 11 Este 0 904.1 -0.4 85
2020-03-13 13:00:00 8.7 2 Noroeste 14 Sudoeste 0 904.6 0 90
2020-03-13 12:00:00 8.1 5 Noroeste 11 Oeste 0 904.7 0.3 92
2020-03-13 11:00:00 7.4 6 Oeste 12 Sudoeste 0 904.5 0.4 96
2020-03-13 10:00:00 6.7 6 Oeste 12 Sudoeste 0 904.6 0.9 97
2020-03-13 09:00:00 6.6 5 Sudoeste 9 Sudoeste 0 904.4 1.2 96
2020-03-13 08:00:00 6.3 4 Sur 9 Oeste 0 904.1 0.9 97
2020-03-13 07:00:00 6.2 7 Oeste 9 Oeste 0 903.7 0.4 95
2020-03-13 06:00:00 7.2 7 Oeste 13 Sudeste 0 903.2 -0.5 92
2020-03-13 05:00:00 7.6 12 Sur 15 Sudeste 0 903.2 -0.9 92
2020-03-13 04:00:00 8 3 Sur 10 Sudoeste 0 903.3 -0.9 90
2020-03-13 03:00:00 8.7 7 Sudoeste 14 Sudeste 0 903.7 -0.7 88
2020-03-13 02:00:00 9.5 6 Sur 12 Sudoeste 0 904.1 -0.3 87
2020-03-13 01:00:00 10.4 9 Sur 12 Sur 0 904.2 0 78
2020-03-13 00:00:00 12.5 10 Oeste 16 Oeste 0 904.4 0.6 67
2020-03-12 23:00:00 13.9 3 Nordeste 15 Sudeste 0 904.4 1 61
2020-03-12 22:00:00 14.6 6 Este 14 Oeste 0 904.2 1 59
2020-03-12 21:00:00 15.8 7 Oeste 19 Nordeste 0 903.8 1 52
2020-03-12 20:00:00 17.5 11 Este 18 Norte 0 903.4 0.5 47
2020-03-12 19:00:00 19.2 7 Norte 18 Noroeste 0 903.2 0 41
2020-03-12 18:00:00 20.9 14 Sudoeste 26 Sudoeste 0 902.8 -0.8 38
2020-03-12 17:00:00 22.3 18 Sudoeste 35 Sudoeste 0 902.9 -1.8 32
2020-03-12 16:00:00 23.1 26 Sudoeste 37 Sudoeste 0 903.2 -2.5 26
2020-03-12 15:00:00 23.3 18 Sudoeste 29 Sudoeste 0 903.6 -2.3 29
2020-03-12 14:00:00 22.5 19 Sudoeste 35 Sudoeste 0 904.7 -1.4 29
2020-03-12 13:00:00 22.4 24 Sudoeste 34 Sudoeste 0 905.7 -0.2 29
2020-03-12 12:00:00 22.1 19 Sudoeste 32 Sudoeste 0 905.9 0 29
2020-03-12 11:00:00 20.8 14 Sur 22 Sur 0 906.1 0.4 32
2020-03-12 10:00:00 19.7 8 Sur 13 Sudeste 0 905.9 0.2 39
2020-03-12 09:00:00 17.4 7 Este 18 Sudeste 0 905.9 0.3 44
2020-03-12 08:00:00 14.4 12 Sudeste 17 Sudeste 0 905.7 -0.2 48
2020-03-12 07:00:00 15.1 15 Sudeste 20 Sudeste 0 905.7 -0.5 43
2020-03-12 06:00:00 13.5 15 Sudeste 18 Sudeste 0 905.6 -1.3 45
2020-03-12 05:00:00 12.1 5 Este 10 Nordeste 0 905.9 -1.6 50
2020-03-12 04:00:00 13 5 Este 12 Este 0 906.2 -1.7 47
2020-03-12 03:00:00 12.3 8 Este 12 Este 0 906.9 -1.4 57
2020-03-12 02:00:00 12.6 7 Este 9 Este 0 907.5 -1 59
2020-03-12 01:00:00 12.9 5 Este 9 Este 0 907.9 -0.5 59
2020-03-12 00:00:00 13.6 6 Este 10 Sudeste 0 908.3 0 58
2020-03-11 23:00:00 14 5 Este 12 Este 0 908.5 0.1 57
2020-03-11 22:00:00 15.2 8 Sudeste 13 Este 0 908.4 0.1 53
2020-03-11 21:00:00 16.4 9 Este 17 Este 0 908.3 0.4 52
2020-03-11 20:00:00 18.4 6 Este 12 Este 0 908.4 0.6 43
2020-03-11 19:00:00 20.2 4 Noroeste 11 Noroeste 0 908.3 0.3 38
2020-03-11 18:00:00 21.6 8 Noroeste 17 Oeste 0 907.9 -0.5 33
2020-03-11 17:00:00 23.6 8 Oeste 22 Noroeste 0 907.8 -1.4 28
2020-03-11 16:00:00 23.9 8 Oeste 22 Oeste 0 908 -1.8 28
2020-03-11 15:00:00 23.4 10 Oeste 19 Oeste 0 908.4 -1.7 28
2020-03-11 14:00:00 22.8 8 Oeste 20 Oeste 0 909.2 -1.2 31
2020-03-11 13:00:00 21.8 13 Oeste 19 Oeste 0 909.8 -0.4 32
2020-03-11 12:00:00 21.1 7 Sudoeste 12 Sudoeste 0 910.1 0.1 39
2020-03-11 11:00:00 19.6 7 Oeste 10 Sudoeste 0 910.4 0.7 41
2020-03-11 10:00:00 17.3 3 Este 6 Este 0 910.2 0.5 53
2020-03-11 09:00:00 13 5 Este 9 Este 0 910 0.4 61
2020-03-11 08:00:00 9.3 7 Este 9 Este 0 909.7 0 74
2020-03-11 07:00:00 8.9 6 Este 8 Este 0 909.7 -0.4 77
2020-03-11 06:00:00 9.1 5 Este 8 Este 0 909.6 -0.9 77
2020-03-11 05:00:00 9 6 Este 9 Este 0 909.7 -1.4 77
2020-03-11 04:00:00 9.2 6 Este 8 Este 0 910.1 -1.5 76
2020-03-11 03:00:00 9.9 7 Nordeste 9 Este 0 910.5 -1.2 74
2020-03-11 02:00:00 10.1 5 Este 8 Este 0 911.1 -0.5 74
2020-03-11 01:00:00 10.4 6 Este 8 Nordeste 0 911.6 0.1 70
2020-03-11 00:00:00 11 4 Este 8 Este 0 911.7 0.5 67
2020-03-10 23:00:00 11.9 5 Este 10 Sudeste 0 911.6 0.9 63
2020-03-10 22:00:00 12.4 8 Sudeste 12 Sudeste 0 911.5 1.1 60
2020-03-10 21:00:00 14 6 Nordeste 12 Sudeste 0 911.2 0.8 57
2020-03-10 20:00:00 16.1 7 Sur 8 Sur 0 910.7 0.2 46
2020-03-10 19:00:00 19.4 4 Sudoeste 12 Oeste 0 910.4 -0.3 40
2020-03-10 18:00:00 20 9 Oeste 22 Oeste 0 910.4 -0.6 37
2020-03-10 17:00:00 20.7 16 Oeste 22 Oeste 0 910.5 -1.1 34
2020-03-10 16:00:00 20.2 11 Sudoeste 19 Oeste 0 910.7 -1.3 34
2020-03-10 15:00:00 19.5 9 Sur 15 Sur 0 911 -1.4 41
2020-03-10 14:00:00 18.3 10 Sudoeste 18 Sudoeste 0 911.6 -0.6 41
2020-03-10 13:00:00 17.1 9 Sudoeste 13 Sudoeste 0 912 -0.3 43
2020-03-10 12:00:00 14.4 10 Sudoeste 14 Sudoeste 0 912.4 0.2 51
2020-03-10 11:00:00 13.2 2 Sur 6 Este 0 912.2 0.3 56
2020-03-10 10:00:00 9.4 3 Este 8 Sudeste 0 912.3 0.5 65
2020-03-10 09:00:00 6.9 4 Este 8 Este 0 912.2 0.6 69
2020-03-10 08:00:00 5.8 6 Este 6 Este 0 911.9 0.5 70
2020-03-10 07:00:00 5.2 6 Este 8 Este 0 911.8 0.4 70
2020-03-10 06:00:00 5.6 6 Este 8 Este 0 911.6 -0.1 68
2020-03-10 05:00:00 5.3 6 Este 10 Sudeste 0 911.4 -0.3 69
2020-03-10 04:00:00 5.6 10 Sudeste 13 Sudeste 0 911.4 -0.8 66
2020-03-10 03:00:00 5.4 5 Este 11 Este 0 911.7 -0.4 63
2020-03-10 02:00:00 5.5 5 Este 12 Este 0 911.7 -0.4 62
2020-03-10 01:00:00 5.4 7 Sudeste 10 Sudeste 0 912.2 0.4 62
2020-03-10 00:00:00 5.8 3 Sudeste 8 Sudeste 0 912.1 0.7 62
2020-03-09 23:00:00 6.8 6 Este 17 Este 0 912.1 1 59
2020-03-09 22:00:00 7.4 8 Este 12 Este 0 911.8 1.2 58
2020-03-09 21:00:00 8.7 4 Norte 11 Oeste 0 911.4 0.9 52
2020-03-09 20:00:00 9.2 6 Noroeste 12 Noroeste 0 911.1 0.7 50
2020-03-09 19:00:00 10.7 8 Noroeste 24 Noroeste 0 910.6 0.2 47
2020-03-09 18:00:00 12 13 Noroeste 23 Noroeste 0 910.5 -0.8 42
2020-03-09 17:00:00 12.2 12 Noroeste 30 Noroeste 0 910.4 -1.2 41
2020-03-09 16:00:00 11.7 13 Oeste 27 Noroeste 0 910.4 -1.9 45
2020-03-09 15:00:00 11 10 Oeste 19 Oeste 0 911.3 -1.4 51
2020-03-09 14:00:00 9.6 4 Norte 18 Oeste 0 911.6 -0.9 60
2020-03-09 13:00:00 8.2 9 Oeste 15 Sudoeste 0 912.3 0.3 66
2020-03-09 12:00:00 6.9 8 Sur 13 Sur 0 912.7 0.9 71
2020-03-09 11:00:00 5 9 Sudoeste 14 Oeste 0 912.5 1.2 83
2020-03-09 10:00:00 4.5 7 Sudoeste 12 Oeste 0 912 1.1 87
2020-03-09 09:00:00 3.7 6 Oeste 14 Oeste 0 911.8 1.1 91
2020-03-09 08:00:00 3.6 5 Noroeste 13 Oeste 0 911.3 0.5 92
2020-03-09 07:00:00 4 5 Oeste 13 Oeste 0 910.9 0.2 92
2020-03-09 06:00:00 4.3 8 Oeste 17 Oeste 0 910.7 -0.2 94
2020-03-09 05:00:00 4.7 10 Oeste 24 Oeste 0 910.8 -0.5 93
2020-03-09 04:00:00 5.4 9 Oeste 18 Oeste 0 910.7 -0.2 92
2020-03-09 03:00:00 5.8 12 Oeste 19 Oeste 0 910.9 0.2 92
2020-03-09 02:00:00 6.6 11 Oeste 31 Oeste 0 911.3 0.7 92
2020-03-09 01:00:00 6.5 15 Oeste 23 Oeste 0 910.9 0.3 92
2020-03-09 00:00:00 7.1 13 Oeste 23 Oeste 0 910.7 0.6 89
2020-03-08 23:00:00 7.6 15 Sudoeste 22 Oeste 0 910.6 0.9 86
2020-03-08 22:00:00 7.9 13 Sudoeste 23 Sudoeste 0 910.6 1.2 84
2020-03-08 21:00:00 8.4 18 Sudoeste 25 Sudoeste 0 910.1 1.1 81
2020-03-08 20:00:00 9.2 13 Oeste 21 Oeste 0 909.7 0.9 73
2020-03-08 19:00:00 10.5 13 Oeste 30 Oeste 0 909.4 0.1 65
2020-03-08 18:00:00 10.9 17 Oeste 24 Oeste 0 909 0 67
2020-03-08 17:00:00 11.4 12 Oeste 30 Noroeste 0 908.8 -0.8 61
2020-03-08 16:00:00 12.1 19 Oeste 35 Oeste 0 909.3 -0.7 51
2020-03-08 15:00:00 12.7 14 Oeste 24 Sudoeste 0 909 -1.3 48
2020-03-08 14:00:00 12 11 Oeste 23 Oeste 0 909.6 -1.2 52
2020-03-08 13:00:00 11.5 10 Oeste 22 Sudoeste 0 910 -0.5 50
2020-03-08 12:00:00 10.4 8 Sudoeste 15 Sur 0 910.3 0.2 57
2020-03-08 11:00:00 8.8 5 Sur 10 Sur 0 910.8 1.4 70
2020-03-08 10:00:00 6.1 6 Sudoeste 10 Noroeste 0 910.5 1.3 71
2020-03-08 09:00:00 5.1 10 Este 14 Sudeste 0 910.1 1.1 67
2020-03-08 08:00:00 1.6 5 Este 14 Sudeste 0 909.4 0.8 73
2020-03-08 07:00:00 1.7 9 Sudeste 14 Sudeste 0 909.2 -0.1 74
2020-03-08 06:00:00 2 6 Este 12 Este 0 909 -0.5 72
2020-03-08 05:00:00 2.4 9 Este 16 Sudeste 0 908.6 -1 75
2020-03-08 04:00:00 2.3 11 Sudeste 14 Este 0 909.3 -0.5 75
2020-03-08 03:00:00 2.9 6 Este 14 Sudeste 0 909.5 -1 72
2020-03-08 02:00:00 2.9 6 Este 9 Este 0 909.6 -1.6 69
2020-03-08 01:00:00 3.4 8 Este 10 Este 0 909.8 -0.7 76
2020-03-08 00:00:00 4.1 5 Este 14 Sudeste 0 910.5 -0.1 73
2020-03-07 23:00:00 4 8 Este 10 Sudeste 0 911.2 0.9 77
2020-03-07 22:00:00 4.9 5 Este 12 Este 0 910.5 0.4 75
2020-03-07 21:00:00 6 5 Sudoeste 12 Sudeste 0 910.6 1 71
2020-03-07 20:00:00 8.2 7 Sudeste 8 Sudeste 0 910.3 0.5 62
2020-03-07 19:00:00 10.2 3 Noroeste 9 Noroeste 0 910.1 0.1 54
2020-03-07 18:00:00 10.7 7 Nordeste 14 Nordeste 0 909.6 -0.6 54
2020-03-07 17:00:00 10.9 5 Norte 14 Norte 0 909.8 -1 56
2020-03-07 16:00:00 10.6 6 Norte 25 Norte 0 910 -1.6 56
2020-03-07 15:00:00 10.3 6 Norte 18 Oeste 0 910.2 -1.6 58
2020-03-07 14:00:00 9.5 8 Sudoeste 15 Oeste 0 910.8 -0.8 62
2020-03-07 13:00:00 7.9 8 Oeste 16 Oeste 0 911.6 0.1 67
2020-03-07 12:00:00 6.3 10 Sudoeste 19 Sudoeste 0 911.8 0.8 71
2020-03-07 11:00:00 4.2 13 Sudoeste 18 Sudoeste 0 911.6 1.3 79
2020-03-07 10:00:00 2.6 11 Sudoeste 14 Sudoeste 0 911.5 1.7 84
2020-03-07 09:00:00 1.6 5 Sudoeste 10 Sudoeste 0 911 1.7 83
2020-03-07 08:00:00 0.2 7 Sudoeste 9 Sudoeste 0 910.3 1.2 84
2020-03-07 07:00:00 -0.3 4 Sur 10 Sudeste 0 909.8 0.6 82
2020-03-07 06:00:00 -1.1 5 Sudeste 11 Sudeste 0 909.3 0.2 82
2020-03-07 05:00:00 -0.7 4 Sur 7 Sur 0 909.1 -0.3 81
2020-03-07 04:00:00 -0.5 5 Sur 10 Sur 0 909.2 -0.1 82
2020-03-07 03:00:00 0.2 2 Este 10 Norte 0 909.1 0.3 79
2020-03-07 02:00:00 0.5 4 Norte 10 Oeste 0 909.4 0.9 77
2020-03-07 01:00:00 1.5 4 Oeste 11 Norte 0 909.3 1.1 73
2020-03-07 00:00:00 1.7 2 Nordeste 19 Oeste 0 908.8 1.4 71
2020-03-06 23:00:00 3.2 12 Norte 25 Norte 0 908.5 1.9 63
2020-03-06 22:00:00 3.5 9 Noroeste 33 Noroeste 0 908.2 2.2 59
2020-03-06 21:00:00 4.3 15 Noroeste 32 Noroeste 0 907.4 2.3 53
2020-03-06 20:00:00 5.1 15 Oeste 40 Noroeste 0 906.6 2.1 53
2020-03-06 19:00:00 6.9 22 Noroeste 41 Noroeste 0 906 2.2 42
2020-03-06 18:00:00 7.5 26 Noroeste 50 Noroeste 0 905.1 1.4 39
2020-03-06 17:00:00 7.5 28 Noroeste 54 Oeste 0 904.5 0.5 41
2020-03-06 16:00:00 7.6 33 Noroeste 52 Oeste 0 903.8 0 41
2020-03-06 15:00:00 6.8 30 Noroeste 57 Noroeste 0 903.7 0.3 45
2020-03-06 14:00:00 6.5 27 Noroeste 59 Noroeste 0 904 1 51
2020-03-06 13:00:00 6.4 38 Noroeste 60 Noroeste 0 903.8 1.6 54
2020-03-06 12:00:00 4.9 37 Oeste 61 Oeste 0 903.4 1.5 64
2020-03-06 11:00:00 4.8 32 Oeste 60 Oeste 0 903 1.3 72
2020-03-06 10:00:00 3.5 34 Oeste 53 Oeste 0 902.2 1.2 80
2020-03-06 09:00:00 2.5 27 Oeste 45 Oeste 0 901.9 1.4 86
2020-03-06 08:00:00 2.6 24 Oeste 42 Oeste 0 901.7 1.9 88
2020-03-06 07:00:00 3.2 31 Oeste 46 Oeste 0 901 0.9 88
2020-03-06 06:00:00 3.8 32 Oeste 55 Oeste 0 900.5 -0.3 87
2020-03-06 05:00:00 3.9 33 Oeste 49 Oeste 0 899.8 -1.6 90
2020-03-06 04:00:00 3.8 27 Oeste 41 Oeste 0 900.1 -1.2 85
2020-03-06 03:00:00 3.3 21 Oeste 34 Oeste 0 900.8 -0.8 89
2020-03-06 02:00:00 3.2 17 Sudoeste 30 Oeste 0 901.4 -0.2 91
2020-03-06 01:00:00 3.5 20 Oeste 35 Noroeste 0 901.3 0.2 90
2020-03-06 00:00:00 4 21 Oeste 46 Oeste 0 901.6 1.2 83
2020-03-05 23:00:00 5 23 Oeste 33 Oeste 0 901.6 1.6 82
2020-03-05 22:00:00 5.5 19 Oeste 38 Oeste 0 901.1 1.5 84
2020-03-05 21:00:00 6.2 26 Oeste 41 Oeste 0 900.4 1.4 82
2020-03-05 20:00:00 6.1 20 Sudoeste 41 Oeste 0 900 1.1 85
2020-03-05 19:00:00 7.5 24 Oeste 41 Oeste 0 899.6 0.9 81
2020-03-05 18:00:00 7.8 23 Oeste 44 Oeste 0 899 0.4 83
2020-03-05 17:00:00 9.2 26 Oeste 45 Oeste 0 898.9 -0.2 66
2020-03-05 16:00:00 9.2 30 Oeste 50 Oeste 0 898.7 -0.7 64
2020-03-05 15:00:00 8.9 31 Oeste 58 Oeste 0 898.6 -1.1 67
2020-03-05 14:00:00 8.7 37 Oeste 52 Oeste 0 899.1 -0.1 64
2020-03-05 13:00:00 8.5 38 Oeste 60 Oeste 0 899.4 2.3 70
2020-03-05 12:00:00 7.1 29 Oeste 56 Oeste 0.2 899.7 3 80
2020-03-05 11:00:00 6.5 35 Oeste 66 Sudoeste 1 899.2 2.3 86
2020-03-05 10:00:00 10.5 29 Sudoeste 45 Sudoeste 0 897.1 0.1 75
2020-03-05 09:00:00 10 20 Sudoeste 29 Sudoeste 0 896.7 -0.8 76
2020-03-05 08:00:00 8.6 9 Sur 16 Sudoeste 0 896.9 -1.9 79
2020-03-05 07:00:00 8.8 6 Oeste 12 Sudoeste 0 897 -2.6 76
2020-03-05 06:00:00 9.6 4 Sudoeste 24 Sudoeste 0 897.5 -3.3 73
2020-03-05 05:00:00 10.5 17 Sudoeste 29 Sudoeste 0 898.8 -3.6 70
2020-03-05 04:00:00 11 17 Sudoeste 25 Sudoeste 0 899.6 -3.6 69
2020-03-05 03:00:00 10.2 14 Sur 21 Sudoeste 0 900.8 -3.1 77
2020-03-05 02:00:00 10.3 12 Sudoeste 18 Sudoeste 0 902.4 -2 78
2020-03-05 01:00:00 10.2 11 Sudoeste 18 Sudoeste 0 903.2 -1.5 77
2020-03-05 00:00:00 10.3 10 Sudoeste 16 Sudoeste 0 903.9 -1 76
2020-03-04 23:00:00 10.1 8 Sur 15 Sur 0 904.4 -0.7 78
2020-03-04 22:00:00 10.2 8 Sur 19 Sudoeste 0 904.7 -0.1 76
2020-03-04 21:00:00 10.4 11 Sudoeste 15 Sudoeste 0 904.9 -0.1 73
2020-03-04 20:00:00 10.5 9 Sudoeste 17 Sudoeste 0 905.1 -0.1 74
2020-03-04 19:00:00 10.9 13 Sudoeste 26 Sudoeste 0 904.8 -1.1 74
2020-03-04 18:00:00 11.4 18 Sudoeste 28 Sudoeste 0 905 -1.2 71
2020-03-04 17:00:00 11.6 18 Oeste 27 Oeste 0 905.2 -1.4 70
2020-03-04 16:00:00 10.9 17 Oeste 35 Oeste 0 905.9 -1.2 75
2020-03-04 15:00:00 11 18 Oeste 32 Oeste 0 906.2 -0.8 72
2020-03-04 14:00:00 10.7 19 Oeste 28 Oeste 0 906.6 -0.8 73
2020-03-04 13:00:00 10.1 23 Oeste 32 Oeste 0 907.1 0 81
2020-03-04 12:00:00 10.5 18 Sudoeste 33 Oeste 0 907 0.3 79
2020-03-04 11:00:00 9.2 23 Oeste 36 Oeste 0 907.4 1.1 89
2020-03-04 10:00:00 8.9 12 Oeste 17 Oeste 0 907.1 1.3 92
2020-03-04 09:00:00 8.6 5 Sudoeste 14 Sudoeste 0 906.7 0.9 95
2020-03-04 08:00:00 8.1 12 Oeste 33 Oeste 0.2 906.3 0.7 97
2020-03-04 07:00:00 9.1 12 Sudoeste 18 Sudoeste 0 905.8 0 95
2020-03-04 06:00:00 9.3 10 Sudoeste 25 Oeste 0 905.8 -0.1 96
2020-03-04 05:00:00 9.3 16 Sudoeste 27 Oeste 0.2 905.6 -0.3 98
2020-03-04 04:00:00 9.5 20 Oeste 29 Oeste 0 905.8 0 99
2020-03-04 03:00:00 9.7 21 Oeste 32 Oeste 0 905.9 0.2 98
2020-03-04 02:00:00 10.1 18 Oeste 30 Oeste 0 905.9 0.4 95
2020-03-04 01:00:00 10.2 15 Oeste 26 Oeste 0 905.8 0.9 94
2020-03-04 00:00:00 10.1 20 Oeste 33 Oeste 0 905.7 1.4 95
2020-03-03 23:00:00 10 21 Oeste 33 Oeste 0.4 905.5 1.7 96
2020-03-03 22:00:00 10.4 14 Oeste 35 Oeste 0 904.9 1.9 94
2020-03-03 21:00:00 11 23 Oeste 39 Oeste 0 904.3 2.2 88
2020-03-03 20:00:00 11.5 26 Oeste 47 Oeste 0 903.8 2.4 85
2020-03-03 19:00:00 11.9 25 Oeste 45 Oeste 0 903 1.8 83
2020-03-03 18:00:00 11.9 26 Oeste 57 Oeste 0 902.1 0.9 83
2020-03-03 17:00:00 12.8 40 Oeste 65 Oeste 0 901.4 -0.1 77
2020-03-03 16:00:00 12.6 42 Oeste 66 Oeste 0 901.2 -0.6 77
2020-03-03 15:00:00 10.7 40 Oeste 64 Oeste 0 901.2 -0.6 86
2020-03-03 14:00:00 9.4 36 Oeste 61 Oeste 0 901.5 0 89
2020-03-03 13:00:00 8.7 41 Oeste 63 Oeste 0 901.8 0.6 89
2020-03-03 12:00:00 8.3 37 Oeste 73 Oeste 0 901.8 0.6 87
2020-03-03 11:00:00 7.7 41 Oeste 57 Oeste 0 901.5 0.2 84
2020-03-03 10:00:00 6.4 28 Oeste 45 Sudoeste 0 901.2 0.2 85
2020-03-03 09:00:00 5.7 29 Oeste 55 Oeste 0 901.2 0.1 83
2020-03-03 08:00:00 5.6 29 Oeste 44 Oeste 0 901.3 -0.4 80
2020-03-03 07:00:00 5 20 Sudoeste 30 Sudoeste 0 901 -1.5 81
2020-03-03 06:00:00 4.2 20 Sudoeste 29 Sudoeste 0.2 901.1 -2.2 82
2020-03-03 05:00:00 4.1 17 Sudoeste 28 Sur 0 901.7 -2 79
2020-03-03 04:00:00 3.7 20 Sudoeste 28 Sudoeste 0 902.5 -1.2 77
2020-03-03 03:00:00 3.4 14 Sudoeste 23 Sudoeste 0 903.3 -0.4 78
2020-03-03 02:00:00 2.6 14 Sudoeste 21 Sudoeste 0 903.7 0 81
2020-03-03 01:00:00 2.4 12 Sudoeste 18 Sudoeste 0 903.7 0.8 83
2020-03-03 00:00:00 2.4 15 Sudoeste 21 Sudoeste 0 903.7 1.6 84
2020-03-02 23:00:00 3.2 17 Oeste 39 Oeste 0 903.7 2 79
2020-03-02 22:00:00 3.7 24 Oeste 36 Oeste 0 902.9 2.4 77
2020-03-02 21:00:00 3.5 11 Sudoeste 22 Oeste 0 902.1 3.2 73
2020-03-02 20:00:00 4 15 Oeste 45 Oeste 0 901.7 3.8 62
2020-03-02 19:00:00 5.2 31 Oeste 51 Oeste 0 900.5 3.4 59
2020-03-02 18:00:00 6.1 28 Oeste 55 Noroeste 0 898.9 2.5 50
2020-03-02 17:00:00 6.7 36 Noroeste 60 Noroeste 0 897.9 2.3 47
2020-03-02 16:00:00 5.9 36 Oeste 69 Noroeste 0 897.1 2.2 50
2020-03-02 15:00:00 6.8 40 Oeste 77 Oeste 0 896.4 2.1 55
2020-03-02 14:00:00 4.8 35 Oeste 67 Noroeste 0 895.6 1.3 75
2020-03-02 13:00:00 6.7 35 Oeste 67 Oeste 0 894.9 1.6 69
2020-03-02 12:00:00 5.7 42 Oeste 60 Oeste 0 894.3 2.2 80
2020-03-02 11:00:00 3.9 35 Oeste 71 Oeste 0.2 894.3 3.7 91
2020-03-02 10:00:00 5.4 39 Oeste 75 Oeste 0 893.3 3.8 75
2020-03-02 09:00:00 5.3 44 Oeste 85 Oeste 0 892.1 4.2 76
2020-03-02 08:00:00 6.6 50 Oeste 78 Oeste 0 890.6 3.7 74
2020-03-02 07:00:00 7.5 47 Oeste 89 Oeste 0 889.5 3 75
2020-03-02 06:00:00 9.5 61 Oeste 101 Oeste 0.2 887.9 -1 76
2020-03-02 05:00:00 10.4 50 Sudoeste 90 Sudoeste 0 886.9 -2.5 75
2020-03-02 04:00:00 9.8 48 Sudoeste 70 Sudoeste 0 886.5 -3.2 77
2020-03-02 03:00:00 9.7 45 Sudoeste 94 Sudoeste 0.2 888.9 -2.4 76
2020-03-02 02:00:00 10.2 34 Sudoeste 47 Sudoeste 0 889.4 -2.6 79
2020-03-02 01:00:00 10.1 24 Sudoeste 57 Sudoeste 0 889.7 -3.1 77
2020-03-02 00:00:00 10 37 Sudoeste 58 Sudoeste 1 891.3 -2.6 83
2020-03-01 23:00:00 11.3 30 Sudoeste 49 Sudoeste 0 892 -3.4 71
2020-03-01 22:00:00 11.4 30 Sudoeste 48 Sur 0 892.8 -2.7 67
2020-03-01 21:00:00 11.2 23 Sudoeste 35 Sur 0 893.9 -2.3 66
2020-03-01 20:00:00 10.7 20 Sudoeste 46 Sudoeste 0 895.4 -1.1 63
2020-03-01 19:00:00 11.4 27 Sudoeste 45 Sudoeste 0 895.5 -1.4 62
2020-03-01 18:00:00 12 27 Oeste 42 Oeste 0 896.2 -1.5 58
2020-03-01 17:00:00 11.5 26 Oeste 56 Oeste 0 896.5 -1.7 71
2020-03-01 16:00:00 13.3 39 Oeste 59 Oeste 0 896.9 -2.2 52
2020-03-01 15:00:00 12 39 Oeste 57 Oeste 0 897.7 -1.8 58
2020-03-01 14:00:00 11.2 20 Oeste 48 Sudoeste 0 898.2 -1.1 67
2020-03-01 13:00:00 10 31 Sudoeste 51 Oeste 0 899.1 0 72
2020-03-01 12:00:00 9.5 35 Oeste 52 Oeste 0.2 899.5 0.9 76
2020-03-01 11:00:00 9 29 Oeste 43 Oeste 0.4 899.3 1.4 78
2020-03-01 10:00:00 7.7 24 Sudoeste 45 Sudoeste 0.2 899.1 0.7 83
2020-03-01 09:00:00 8 24 Sudoeste 43 Sudoeste 0 898.6 0 73
2020-03-01 08:00:00 7.7 20 Sudoeste 34 Sur 0 897.9 -0.5 73
2020-03-01 07:00:00 6.5 13 Sudoeste 23 Sudoeste 0 898.4 -0.2 79
2020-03-01 06:00:00 6.4 17 Oeste 28 Sudoeste 0 898.6 -0.6 83
2020-03-01 05:00:00 6.4 17 Sudoeste 25 Sudoeste 0 898.4 -1 79
2020-03-01 04:00:00 6.3 13 Sudoeste 26 Sudoeste 0 898.6 -1.2 79
2020-03-01 03:00:00 6.4 17 Sudoeste 31 Oeste 0 899.2 -0.5 78
2020-03-01 02:00:00 6.4 13 Sudoeste 23 Sudoeste 0 899.4 -0.7 76
2020-03-01 01:00:00 7.1 17 Sudoeste 25 Sudoeste 0 899.8 -0.2 66
2020-03-01 00:00:00 7 14 Sudoeste 21 Sudoeste 0 899.7 0 63
2020-02-29 23:00:00 6.5 16 Sudoeste 25 Sudoeste 0 900.1 0.8 67
2020-02-29 22:00:00 6.9 17 Oeste 36 Oeste 0 900 1.3 69
2020-02-29 21:00:00 7.3 29 Oeste 41 Oeste 0 899.7 1.7 65
2020-02-29 20:00:00 7.9 16 Oeste 43 Oeste 0 899.3 1.8 65
2020-02-29 19:00:00 8.8 22 Oeste 47 Oeste 0 898.7 1.9 62
2020-02-29 18:00:00 10.1 24 Oeste 46 Oeste 0 898 1.3 67
2020-02-29 17:00:00 11 31 Oeste 65 Oeste 0 897.5 0.8 68
2020-02-29 16:00:00 13.5 43 Oeste 70 Oeste 0 896.8 -0.6 54
2020-02-29 15:00:00 14.1 48 Oeste 66 Oeste 0 896.7 -1.2 56
2020-02-29 14:00:00 14.7 51 Oeste 72 Sudoeste 0 896.7 -0.9 56
2020-02-29 13:00:00 13.7 37 Oeste 65 Oeste 0 897.4 -0.3 58
2020-02-29 12:00:00 13.5 21 Sudoeste 42 Sudoeste 0 897.9 0.4 58
2020-02-29 11:00:00 12.4 34 Sudoeste 53 Sudoeste 0 897.6 0.6 53
2020-02-29 10:00:00 11.4 19 Sudoeste 34 Sudoeste 0 897.7 0.3 46
2020-02-29 09:00:00 10 19 Sudoeste 37 Sudoeste 0 897.5 -0.3 43
2020-02-29 08:00:00 10.1 24 Sudoeste 37 Sur 0 897 -0.4 35
2020-02-29 07:00:00 10.4 18 Sudoeste 31 Sudoeste 0 897.4 -0.5 30
2020-02-29 06:00:00 9.7 13 Sudoeste 22 Sudoeste 0 897.8 -0.3 42
2020-02-29 05:00:00 9.4 10 Sudoeste 19 Sudoeste 0 897.4 -1.3 46
2020-02-29 04:00:00 10.1 15 Sudoeste 34 Sur 0 897.9 -1.7 47
2020-02-29 03:00:00 11.4 21 Sur 32 Sudoeste 0 898.1 -2.4 43
2020-02-29 02:00:00 10.3 15 Sur 25 Sudoeste 0 898.7 -2.3 50
2020-02-29 01:00:00 11.3 18 Sudoeste 26 Sur 0 899.6 -1.8 45
2020-02-29 00:00:00 11.5 16 Sur 27 Sur 0 900.5 -1 43